sensor_id;sensor_type;location;lat;lon;timestamp;P1;durP1;ratioP1;P2;durP2;ratioP2
1294;SDS011;640;48.310;11.728;2022-09-12T00:01:02;9.52;;;5.15;;
1294;SDS011;640;48.310;11.728;2022-09-12T00:03:31;8.93;;;4.70;;
1294;SDS011;640;48.310;11.728;2022-09-12T00:05:59;7.18;;;5.20;;
1294;SDS011;640;48.310;11.728;2022-09-12T00:08:28;5.03;;;4.50;;
1294;SDS011;640;48.310;11.728;2022-09-12T00:10:56;5.90;;;4.55;;
1294;SDS011;640;48.310;11.728;2022-09-12T00:13:26;6.47;;;4.75;;
1294;SDS011;640;48.310;11.728;2022-09-12T00:15:54;6.38;;;4.47;;
1294;SDS011;640;48.310;11.728;2022-09-12T00:18:22;6.55;;;4.55;;
1294;SDS011;640;48.310;11.728;2022-09-12T00:20:51;6.57;;;4.63;;
1294;SDS011;640;48.310;11.728;2022-09-12T00:23:19;5.68;;;4.32;;
1294;SDS011;640;48.310;11.728;2022-09-12T00:25:47;9.52;;;4.45;;
1294;SDS011;640;48.310;11.728;2022-09-12T00:28:16;7.07;;;4.25;;
1294;SDS011;640;48.310;11.728;2022-09-12T00:30:47;5.38;;;4.15;;
1294;SDS011;640;48.310;11.728;2022-09-12T00:33:15;7.90;;;4.38;;
1294;SDS011;640;48.310;11.728;2022-09-12T00:35:45;7.60;;;4.13;;
1294;SDS011;640;48.310;11.728;2022-09-12T00:38:15;4.70;;;4.00;;
1294;SDS011;640;48.310;11.728;2022-09-12T00:40:44;4.95;;;4.05;;
1294;SDS011;640;48.310;11.728;2022-09-12T00:43:13;4.32;;;3.90;;
1294;SDS011;640;48.310;11.728;2022-09-12T00:45:42;8.90;;;3.77;;
1294;SDS011;640;48.310;11.728;2022-09-12T00:48:15;6.07;;;3.63;;
1294;SDS011;640;48.310;11.728;2022-09-12T00:50:50;7.03;;;4.00;;
1294;SDS011;640;48.310;11.728;2022-09-12T00:53:18;5.55;;;3.95;;
1294;SDS011;640;48.310;11.728;2022-09-12T00:55:47;7.30;;;4.32;;
1294;SDS011;640;48.310;11.728;2022-09-12T00:58:17;6.30;;;4.53;;
1294;SDS011;640;48.310;11.728;2022-09-12T01:00:48;7.85;;;4.82;;
1294;SDS011;640;48.310;11.728;2022-09-12T01:03:18;6.72;;;4.72;;
1294;SDS011;640;48.310;11.728;2022-09-12T01:05:49;4.88;;;4.40;;
1294;SDS011;640;48.310;11.728;2022-09-12T01:08:22;5.45;;;4.80;;
1294;SDS011;640;48.310;11.728;2022-09-12T01:10:51;5.60;;;4.63;;
1294;SDS011;640;48.310;11.728;2022-09-12T01:13:20;7.60;;;4.68;;
1294;SDS011;640;48.310;11.728;2022-09-12T01:15:49;7.82;;;4.70;;
1294;SDS011;640;48.310;11.728;2022-09-12T01:18:21;6.38;;;4.90;;
1294;SDS011;640;48.310;11.728;2022-09-12T01:20:58;5.82;;;4.82;;
1294;SDS011;640;48.310;11.728;2022-09-12T01:29:58;6.53;;;3.88;;
1294;SDS011;640;48.310;11.728;2022-09-12T01:32:50;52.90;;;5.55;;
1294;SDS011;640;48.310;11.728;2022-09-12T01:35:26;11.40;;;3.73;;
1294;SDS011;640;48.310;11.728;2022-09-12T01:38:01;3.83;;;3.42;;
1294;SDS011;640;48.310;11.728;2022-09-12T01:40:38;5.72;;;3.60;;
1294;SDS011;640;48.310;11.728;2022-09-12T01:43:13;5.32;;;3.38;;
1294;SDS011;640;48.310;11.728;2022-09-12T01:45:46;4.43;;;3.60;;
1294;SDS011;640;48.310;11.728;2022-09-12T01:48:20;7.47;;;3.45;;
1294;SDS011;640;48.310;11.728;2022-09-12T01:50:51;6.78;;;3.40;;
1294;SDS011;640;48.310;11.728;2022-09-12T01:55:51;3.05;;;2.70;;
1294;SDS011;640;48.310;11.728;2022-09-12T01:58:24;4.68;;;3.40;;
1294;SDS011;640;48.310;11.728;2022-09-12T02:00:57;5.50;;;3.35;;
1294;SDS011;640;48.310;11.728;2022-09-12T02:03:31;6.70;;;3.80;;
1294;SDS011;640;48.310;11.728;2022-09-12T02:06:02;6.22;;;3.90;;
1294;SDS011;640;48.310;11.728;2022-09-12T02:08:35;4.30;;;3.67;;
1294;SDS011;640;48.310;11.728;2022-09-12T02:11:06;7.28;;;3.70;;
1294;SDS011;640;48.310;11.728;2022-09-12T02:13:36;4.10;;;3.67;;
1294;SDS011;640;48.310;11.728;2022-09-12T02:16:07;7.07;;;3.28;;
1294;SDS011;640;48.310;11.728;2022-09-12T02:18:39;6.78;;;3.22;;
1294;SDS011;640;48.310;11.728;2022-09-12T02:21:14;5.90;;;3.08;;
1294;SDS011;640;48.310;11.728;2022-09-12T02:23:44;5.93;;;3.35;;
1294;SDS011;640;48.310;11.728;2022-09-12T02:26:16;9.20;;;3.30;;
1294;SDS011;640;48.310;11.728;2022-09-12T02:28:47;4.47;;;3.33;;
1294;SDS011;640;48.310;11.728;2022-09-12T02:31:18;4.43;;;3.70;;
1294;SDS011;640;48.310;11.728;2022-09-12T02:33:53;7.90;;;3.60;;
1294;SDS011;640;48.310;11.728;2022-09-12T02:36:33;3.78;;;3.40;;
1294;SDS011;640;48.310;11.728;2022-09-12T02:39:05;5.60;;;3.20;;
1294;SDS011;640;48.310;11.728;2022-09-12T02:41:34;6.03;;;3.10;;
1294;SDS011;640;48.310;11.728;2022-09-12T02:44:02;4.20;;;3.65;;
1294;SDS011;640;48.310;11.728;2022-09-12T02:46:32;4.10;;;3.25;;
1294;SDS011;640;48.310;11.728;2022-09-12T02:49:06;7.30;;;3.63;;
1294;SDS011;640;48.310;11.728;2022-09-12T02:54:03;3.67;;;3.25;;
1294;SDS011;640;48.310;11.728;2022-09-12T02:56:33;5.18;;;3.90;;
1294;SDS011;640;48.310;11.728;2022-09-12T02:59:02;3.95;;;3.50;;
1294;SDS011;640;48.310;11.728;2022-09-12T03:01:36;3.45;;;3.15;;
1294;SDS011;640;48.310;11.728;2022-09-12T03:04:26;4.13;;;2.90;;
1294;SDS011;640;48.310;11.728;2022-09-12T03:07:08;5.10;;;2.85;;
1294;SDS011;640;48.310;11.728;2022-09-12T03:09:41;4.35;;;2.90;;
1294;SDS011;640;48.310;11.728;2022-09-12T03:12:18;2.88;;;2.67;;
1294;SDS011;640;48.310;11.728;2022-09-12T03:14:58;3.38;;;2.95;;
1294;SDS011;640;48.310;11.728;2022-09-12T03:17:37;4.57;;;2.90;;
1294;SDS011;640;48.310;11.728;2022-09-12T03:20:12;3.20;;;2.90;;
1294;SDS011;640;48.310;11.728;2022-09-12T03:22:45;2.63;;;2.42;;
1294;SDS011;640;48.310;11.728;2022-09-12T03:25:19;3.28;;;2.90;;
1294;SDS011;640;48.310;11.728;2022-09-12T03:27:52;3.55;;;2.97;;
1294;SDS011;640;48.310;11.728;2022-09-12T03:30:22;3.58;;;3.28;;
1294;SDS011;640;48.310;11.728;2022-09-12T03:32:52;3.55;;;3.25;;
1294;SDS011;640;48.310;11.728;2022-09-12T03:35:22;5.80;;;3.23;;
1294;SDS011;640;48.310;11.728;2022-09-12T03:37:52;3.40;;;3.10;;
1294;SDS011;640;48.310;11.728;2022-09-12T03:40:20;4.63;;;3.40;;
1294;SDS011;640;48.310;11.728;2022-09-12T03:42:48;5.65;;;3.17;;
1294;SDS011;640;48.310;11.728;2022-09-12T03:45:17;5.10;;;4.50;;
1294;SDS011;640;48.310;11.728;2022-09-12T03:47:45;4.53;;;3.80;;
1294;SDS011;640;48.310;11.728;2022-09-12T03:50:13;3.83;;;3.10;;
1294;SDS011;640;48.310;11.728;2022-09-12T03:52:43;2.92;;;2.67;;
1294;SDS011;640;48.310;11.728;2022-09-12T03:55:11;2.70;;;2.50;;
1294;SDS011;640;48.310;11.728;2022-09-12T03:57:40;3.10;;;2.80;;
1294;SDS011;640;48.310;11.728;2022-09-12T04:00:08;4.32;;;3.17;;
1294;SDS011;640;48.310;11.728;2022-09-12T04:02:37;4.82;;;3.30;;
1294;SDS011;640;48.310;11.728;2022-09-12T04:05:05;5.00;;;3.72;;
1294;SDS011;640;48.310;11.728;2022-09-12T04:07:34;4.68;;;3.80;;
1294;SDS011;640;48.310;11.728;2022-09-12T04:10:04;6.28;;;4.50;;
1294;SDS011;640;48.310;11.728;2022-09-12T04:15:01;12.50;;;4.75;;
1294;SDS011;640;48.310;11.728;2022-09-12T04:17:30;27.40;;;4.82;;
1294;SDS011;640;48.310;11.728;2022-09-12T04:19:58;28.60;;;5.03;;
1294;SDS011;640;48.310;11.728;2022-09-12T04:22:27;30.00;;;4.95;;
1294;SDS011;640;48.310;11.728;2022-09-12T04:24:55;17.40;;;4.47;;
1294;SDS011;640;48.310;11.728;2022-09-12T04:27:25;7.18;;;4.50;;
1294;SDS011;640;48.310;11.728;2022-09-12T04:29:54;13.20;;;4.93;;
1294;SDS011;640;48.310;11.728;2022-09-12T04:32:23;12.52;;;5.15;;
1294;SDS011;640;48.310;11.728;2022-09-12T04:34:51;8.13;;;4.85;;
1294;SDS011;640;48.310;11.728;2022-09-12T04:37:20;7.90;;;4.10;;
1294;SDS011;640;48.310;11.728;2022-09-12T04:39:49;6.32;;;3.92;;
1294;SDS011;640;48.310;11.728;2022-09-12T04:42:22;10.77;;;4.53;;
1294;SDS011;640;48.310;11.728;2022-09-12T04:44:51;6.70;;;4.40;;
1294;SDS011;640;48.310;11.728;2022-09-12T04:47:20;6.32;;;4.55;;
1294;SDS011;640;48.310;11.728;2022-09-12T04:49:48;4.72;;;4.00;;
1294;SDS011;640;48.310;11.728;2022-09-12T04:52:18;4.75;;;4.15;;
1294;SDS011;640;48.310;11.728;2022-09-12T04:54:46;5.72;;;4.30;;
1294;SDS011;640;48.310;11.728;2022-09-12T04:57:14;7.72;;;4.07;;
1294;SDS011;640;48.310;11.728;2022-09-12T04:59:43;4.38;;;3.50;;
1294;SDS011;640;48.310;11.728;2022-09-12T05:02:13;7.78;;;3.60;;
1294;SDS011;640;48.310;11.728;2022-09-12T05:04:42;4.55;;;3.40;;
1294;SDS011;640;48.310;11.728;2022-09-12T05:07:10;6.80;;;3.40;;
1294;SDS011;640;48.310;11.728;2022-09-12T05:09:38;3.70;;;3.00;;
1294;SDS011;640;48.310;11.728;2022-09-12T05:12:07;7.68;;;3.15;;
1294;SDS011;640;48.310;11.728;2022-09-12T05:14:35;9.07;;;3.30;;
1294;SDS011;640;48.310;11.728;2022-09-12T05:17:04;7.38;;;2.88;;
1294;SDS011;640;48.310;11.728;2022-09-12T05:19:35;3.00;;;2.70;;
1294;SDS011;640;48.310;11.728;2022-09-12T05:22:03;3.87;;;2.60;;
1294;SDS011;640;48.310;11.728;2022-09-12T05:24:32;4.00;;;2.60;;
1294;SDS011;640;48.310;11.728;2022-09-12T05:27:01;2.67;;;2.47;;
1294;SDS011;640;48.310;11.728;2022-09-12T05:29:30;6.70;;;2.25;;
1294;SDS011;640;48.310;11.728;2022-09-12T05:32:00;2.83;;;2.60;;
1294;SDS011;640;48.310;11.728;2022-09-12T05:34:28;3.55;;;2.75;;
1294;SDS011;640;48.310;11.728;2022-09-12T05:36:58;3.78;;;2.80;;
1294;SDS011;640;48.310;11.728;2022-09-12T05:39:27;2.97;;;2.70;;
1294;SDS011;640;48.310;11.728;2022-09-12T05:41:55;3.20;;;2.90;;
1294;SDS011;640;48.310;11.728;2022-09-12T05:44:23;4.85;;;2.80;;
1294;SDS011;640;48.310;11.728;2022-09-12T05:46:52;4.20;;;3.05;;
1294;SDS011;640;48.310;11.728;2022-09-12T05:49:20;4.40;;;3.15;;
1294;SDS011;640;48.310;11.728;2022-09-12T05:51:49;4.40;;;3.03;;
1294;SDS011;640;48.310;11.728;2022-09-12T05:54:19;4.50;;;3.13;;
1294;SDS011;640;48.310;11.728;2022-09-12T05:56:48;5.88;;;2.95;;
1294;SDS011;640;48.310;11.728;2022-09-12T05:59:17;3.90;;;3.33;;
1294;SDS011;640;48.310;11.728;2022-09-12T06:01:47;3.70;;;3.28;;
1294;SDS011;640;48.310;11.728;2022-09-12T06:04:15;3.67;;;3.28;;
1294;SDS011;640;48.310;11.728;2022-09-12T06:06:44;10.40;;;3.08;;
1294;SDS011;640;48.310;11.728;2022-09-12T06:09:15;5.22;;;3.17;;
1294;SDS011;640;48.310;11.728;2022-09-12T06:11:45;3.05;;;2.65;;
1294;SDS011;640;48.310;11.728;2022-09-12T06:14:14;4.72;;;2.83;;
1294;SDS011;640;48.310;11.728;2022-09-12T06:16:43;6.50;;;2.88;;
1294;SDS011;640;48.310;11.728;2022-09-12T06:19:14;3.77;;;2.67;;
1294;SDS011;640;48.310;11.728;2022-09-12T06:21:43;2.72;;;2.50;;
1294;SDS011;640;48.310;11.728;2022-09-12T06:24:13;3.00;;;2.70;;
1294;SDS011;640;48.310;11.728;2022-09-12T06:26:41;3.70;;;2.70;;
1294;SDS011;640;48.310;11.728;2022-09-12T06:29:11;2.97;;;2.67;;
1294;SDS011;640;48.310;11.728;2022-09-12T06:31:41;3.20;;;2.90;;
1294;SDS011;640;48.310;11.728;2022-09-12T06:34:10;5.43;;;3.33;;
1294;SDS011;640;48.310;11.728;2022-09-12T06:36:40;4.68;;;3.03;;
1294;SDS011;640;48.310;11.728;2022-09-12T06:39:10;3.72;;;3.20;;
1294;SDS011;640;48.310;11.728;2022-09-12T06:41:39;7.15;;;2.95;;
1294;SDS011;640;48.310;11.728;2022-09-12T06:44:27;3.80;;;3.15;;
1294;SDS011;640;48.310;11.728;2022-09-12T06:46:55;5.97;;;3.27;;
1294;SDS011;640;48.310;11.728;2022-09-12T06:49:24;5.38;;;3.50;;
1294;SDS011;640;48.310;11.728;2022-09-12T06:51:52;4.68;;;2.90;;
1294;SDS011;640;48.310;11.728;2022-09-12T06:54:21;4.70;;;3.10;;
1294;SDS011;640;48.310;11.728;2022-09-12T06:56:49;5.18;;;3.63;;
1294;SDS011;640;48.310;11.728;2022-09-12T06:59:17;4.70;;;3.30;;
1294;SDS011;640;48.310;11.728;2022-09-12T07:01:47;4.68;;;3.35;;
1294;SDS011;640;48.310;11.728;2022-09-12T07:04:16;3.88;;;3.20;;
1294;SDS011;640;48.310;11.728;2022-09-12T07:06:45;4.22;;;3.45;;
1294;SDS011;640;48.310;11.728;2022-09-12T07:09:14;5.60;;;3.38;;
1294;SDS011;640;48.310;11.728;2022-09-12T07:11:43;5.60;;;3.25;;
1294;SDS011;640;48.310;11.728;2022-09-12T07:14:13;4.65;;;3.72;;
1294;SDS011;640;48.310;11.728;2022-09-12T07:16:42;5.20;;;3.80;;
1294;SDS011;640;48.310;11.728;2022-09-12T07:19:12;6.13;;;4.03;;
1294;SDS011;640;48.310;11.728;2022-09-12T07:21:40;7.22;;;3.75;;
1294;SDS011;640;48.310;11.728;2022-09-12T07:24:08;5.35;;;3.92;;
1294;SDS011;640;48.310;11.728;2022-09-12T07:26:37;5.07;;;3.85;;
1294;SDS011;640;48.310;11.728;2022-09-12T07:29:11;7.10;;;4.28;;
1294;SDS011;640;48.310;11.728;2022-09-12T07:32:01;5.50;;;4.00;;
1294;SDS011;640;48.310;11.728;2022-09-12T07:34:31;4.20;;;3.75;;
1294;SDS011;640;48.310;11.728;2022-09-12T07:36:59;5.68;;;3.80;;
1294;SDS011;640;48.310;11.728;2022-09-12T07:39:28;5.32;;;3.60;;
1294;SDS011;640;48.310;11.728;2022-09-12T07:41:56;4.63;;;3.20;;
1294;SDS011;640;48.310;11.728;2022-09-12T07:44:26;4.33;;;3.43;;
1294;SDS011;640;48.310;11.728;2022-09-12T07:46:55;4.43;;;3.20;;
1294;SDS011;640;48.310;11.728;2022-09-12T07:49:23;4.32;;;3.08;;
1294;SDS011;640;48.310;11.728;2022-09-12T07:51:53;3.28;;;2.97;;
1294;SDS011;640;48.310;11.728;2022-09-12T07:54:21;4.75;;;3.08;;
1294;SDS011;640;48.310;11.728;2022-09-12T07:56:50;4.32;;;3.50;;
1294;SDS011;640;48.310;11.728;2022-09-12T07:59:18;7.13;;;3.65;;
1294;SDS011;640;48.310;11.728;2022-09-12T08:02:09;6.13;;;3.63;;
1294;SDS011;640;48.310;11.728;2022-09-12T08:04:43;4.57;;;3.35;;
1294;SDS011;640;48.310;11.728;2022-09-12T08:07:13;5.72;;;3.35;;
1294;SDS011;640;48.310;11.728;2022-09-12T08:09:44;5.72;;;3.35;;
1294;SDS011;640;48.310;11.728;2022-09-12T08:12:13;4.50;;;3.50;;
1294;SDS011;640;48.310;11.728;2022-09-12T08:14:42;4.82;;;3.00;;
1294;SDS011;640;48.310;11.728;2022-09-12T08:17:27;4.72;;;3.30;;
1294;SDS011;640;48.310;11.728;2022-09-12T08:19:56;3.92;;;3.22;;
1294;SDS011;640;48.310;11.728;2022-09-12T08:22:26;4.10;;;3.00;;
1294;SDS011;640;48.310;11.728;2022-09-12T08:24:54;3.38;;;3.08;;
1294;SDS011;640;48.310;11.728;2022-09-12T08:27:22;4.45;;;3.42;;
1294;SDS011;640;48.310;11.728;2022-09-12T08:29:51;3.90;;;3.50;;
1294;SDS011;640;48.310;11.728;2022-09-12T08:32:19;3.83;;;3.20;;
1294;SDS011;640;48.310;11.728;2022-09-12T08:34:48;4.88;;;3.30;;
1294;SDS011;640;48.310;11.728;2022-09-12T08:37:16;4.28;;;3.10;;
1294;SDS011;640;48.310;11.728;2022-09-12T08:39:47;3.13;;;2.83;;
1294;SDS011;640;48.310;11.728;2022-09-12T08:42:17;3.15;;;2.70;;
1294;SDS011;640;48.310;11.728;2022-09-12T08:44:57;2.88;;;2.50;;
1294;SDS011;640;48.310;11.728;2022-09-12T08:47:32;3.95;;;2.42;;
1294;SDS011;640;48.310;11.728;2022-09-12T08:50:05;3.90;;;2.83;;
1294;SDS011;640;48.310;11.728;2022-09-12T08:52:40;3.00;;;2.47;;
1294;SDS011;640;48.310;11.728;2022-09-12T08:55:16;3.90;;;2.95;;
1294;SDS011;640;48.310;11.728;2022-09-12T08:57:58;3.83;;;3.30;;
1294;SDS011;640;48.310;11.728;2022-09-12T09:00:30;3.65;;;2.63;;
1294;SDS011;640;48.310;11.728;2022-09-12T09:06:06;4.45;;;2.80;;
1294;SDS011;640;48.310;11.728;2022-09-12T09:08:51;3.92;;;3.00;;
1294;SDS011;640;48.310;11.728;2022-09-12T09:11:33;3.42;;;3.13;;
1294;SDS011;640;48.310;11.728;2022-09-12T09:14:16;3.90;;;3.28;;
1294;SDS011;640;48.310;11.728;2022-09-12T09:17:10;3.92;;;3.40;;
1294;SDS011;640;48.310;11.728;2022-09-12T09:19:43;4.50;;;2.97;;
1294;SDS011;640;48.310;11.728;2022-09-12T09:22:40;4.78;;;3.85;;
1294;SDS011;640;48.310;11.728;2022-09-12T09:25:12;3.72;;;3.30;;
1294;SDS011;640;48.310;11.728;2022-09-12T09:27:52;9.05;;;4.13;;
1294;SDS011;640;48.310;11.728;2022-09-12T09:30:23;4.53;;;3.78;;
1294;SDS011;640;48.310;11.728;2022-09-12T09:32:53;4.60;;;4.15;;
1294;SDS011;640;48.310;11.728;2022-09-12T09:35:25;4.20;;;3.80;;
1294;SDS011;640;48.310;11.728;2022-09-12T09:40:36;4.47;;;3.75;;
1294;SDS011;640;48.310;11.728;2022-09-12T09:43:15;5.60;;;4.32;;
1294;SDS011;640;48.310;11.728;2022-09-12T09:45:48;6.75;;;4.50;;
1294;SDS011;640;48.310;11.728;2022-09-12T09:48:18;5.82;;;4.50;;
1294;SDS011;640;48.310;11.728;2022-09-12T09:50:47;4.75;;;4.05;;
1294;SDS011;640;48.310;11.728;2022-09-12T09:53:21;5.30;;;4.80;;
1294;SDS011;640;48.310;11.728;2022-09-12T09:55:53;4.80;;;4.22;;
1294;SDS011;640;48.310;11.728;2022-09-12T09:58:30;4.38;;;3.83;;
1294;SDS011;640;48.310;11.728;2022-09-12T10:01:00;4.18;;;3.25;;
1294;SDS011;640;48.310;11.728;2022-09-12T10:03:30;4.55;;;3.50;;
1294;SDS011;640;48.310;11.728;2022-09-12T10:08:29;4.70;;;3.50;;
1294;SDS011;640;48.310;11.728;2022-09-12T10:10:59;4.05;;;3.60;;
1294;SDS011;640;48.310;11.728;2022-09-12T10:13:40;4.22;;;3.40;;
1294;SDS011;640;48.310;11.728;2022-09-12T10:16:17;4.18;;;3.78;;
1294;SDS011;640;48.310;11.728;2022-09-12T10:18:48;4.32;;;3.88;;
1294;SDS011;640;48.310;11.728;2022-09-12T10:21:19;4.60;;;3.97;;
1294;SDS011;640;48.310;11.728;2022-09-12T10:23:57;4.53;;;4.13;;
1294;SDS011;640;48.310;11.728;2022-09-12T10:26:32;3.97;;;3.50;;
1294;SDS011;640;48.310;11.728;2022-09-12T10:29:08;5.00;;;4.30;;
1294;SDS011;640;48.310;11.728;2022-09-12T10:31:41;4.20;;;3.80;;
1294;SDS011;640;48.310;11.728;2022-09-12T10:34:18;3.80;;;3.10;;
1294;SDS011;640;48.310;11.728;2022-09-12T10:36:50;5.22;;;3.55;;
1294;SDS011;640;48.310;11.728;2022-09-12T10:39:20;3.83;;;3.50;;
1294;SDS011;640;48.310;11.728;2022-09-12T10:41:49;5.53;;;3.42;;
1294;SDS011;640;48.310;11.728;2022-09-12T10:44:23;3.92;;;3.00;;
1294;SDS011;640;48.310;11.728;2022-09-12T10:46:53;5.85;;;4.35;;
1294;SDS011;640;48.310;11.728;2022-09-12T10:49:22;4.47;;;2.67;;
1294;SDS011;640;48.310;11.728;2022-09-12T10:51:53;3.40;;;2.80;;
1294;SDS011;640;48.310;11.728;2022-09-12T10:54:25;2.80;;;2.60;;
1294;SDS011;640;48.310;11.728;2022-09-12T11:00:00;3.35;;;3.05;;
1294;SDS011;640;48.310;11.728;2022-09-12T11:02:35;5.18;;;3.78;;
1294;SDS011;640;48.310;11.728;2022-09-12T11:05:21;3.55;;;3.13;;
1294;SDS011;640;48.310;11.728;2022-09-12T11:08:06;3.83;;;3.42;;
1294;SDS011;640;48.310;11.728;2022-09-12T11:10:41;5.15;;;3.55;;
1294;SDS011;640;48.310;11.728;2022-09-12T11:13:15;4.35;;;3.70;;
1294;SDS011;640;48.310;11.728;2022-09-12T11:15:55;3.17;;;2.60;;
1294;SDS011;640;48.310;11.728;2022-09-12T11:18:52;3.53;;;2.78;;
1294;SDS011;640;48.310;11.728;2022-09-12T11:21:33;3.05;;;2.75;;
1294;SDS011;640;48.310;11.728;2022-09-12T11:24:20;3.85;;;3.33;;
1294;SDS011;640;48.310;11.728;2022-09-12T11:27:04;3.75;;;3.45;;
1294;SDS011;640;48.310;11.728;2022-09-12T11:29:46;3.88;;;3.38;;
1294;SDS011;640;48.310;11.728;2022-09-12T11:35:16;3.72;;;2.38;;
1294;SDS011;640;48.310;11.728;2022-09-12T11:37:51;4.50;;;2.70;;
1294;SDS011;640;48.310;11.728;2022-09-12T11:40:28;3.22;;;2.92;;
1294;SDS011;640;48.310;11.728;2022-09-12T11:43:00;4.35;;;2.83;;
1294;SDS011;640;48.310;11.728;2022-09-12T11:45:33;3.55;;;3.00;;
1294;SDS011;640;48.310;11.728;2022-09-12T11:48:06;3.88;;;3.10;;
1294;SDS011;640;48.310;11.728;2022-09-12T11:50:37;3.83;;;2.92;;
1294;SDS011;640;48.310;11.728;2022-09-12T11:53:11;3.78;;;3.40;;
1294;SDS011;640;48.310;11.728;2022-09-12T11:55:47;3.25;;;2.60;;
1294;SDS011;640;48.310;11.728;2022-09-12T11:58:21;4.63;;;3.10;;
1294;SDS011;640;48.310;11.728;2022-09-12T12:00:52;2.85;;;2.55;;
1294;SDS011;640;48.310;11.728;2022-09-12T12:03:26;3.42;;;3.13;;
1294;SDS011;640;48.310;11.728;2022-09-12T12:06:00;3.67;;;3.38;;
1294;SDS011;640;48.310;11.728;2022-09-12T12:08:31;4.55;;;2.90;;
1294;SDS011;640;48.310;11.728;2022-09-12T12:11:05;3.58;;;2.53;;
1294;SDS011;640;48.310;11.728;2022-09-12T12:13:35;3.00;;;2.70;;
1294;SDS011;640;48.310;11.728;2022-09-12T12:16:06;2.67;;;2.33;;
1294;SDS011;640;48.310;11.728;2022-09-12T12:18:37;2.80;;;2.50;;
1294;SDS011;640;48.310;11.728;2022-09-12T12:21:18;3.40;;;2.63;;
1294;SDS011;640;48.310;11.728;2022-09-12T12:24:00;4.07;;;2.33;;
1294;SDS011;640;48.310;11.728;2022-09-12T12:26:41;2.83;;;2.55;;
1294;SDS011;640;48.310;11.728;2022-09-12T12:29:14;2.30;;;2.10;;
1294;SDS011;640;48.310;11.728;2022-09-12T12:32:22;2.90;;;2.60;;
1294;SDS011;640;48.310;11.728;2022-09-12T12:38:25;2.92;;;2.47;;
1294;SDS011;640;48.310;11.728;2022-09-12T12:41:09;2.90;;;2.70;;
1294;SDS011;640;48.310;11.728;2022-09-12T12:47:15;4.63;;;2.47;;
1294;SDS011;640;48.310;11.728;2022-09-12T12:49:49;2.95;;;2.50;;
1294;SDS011;640;48.310;11.728;2022-09-12T12:52:20;3.08;;;2.10;;
1294;SDS011;640;48.310;11.728;2022-09-12T12:54:49;5.47;;;2.58;;
1294;SDS011;640;48.310;11.728;2022-09-12T13:00:24;2.95;;;2.35;;
1294;SDS011;640;48.310;11.728;2022-09-12T13:02:56;2.70;;;2.50;;
1294;SDS011;640;48.310;11.728;2022-09-12T13:05:28;2.42;;;2.03;;
1294;SDS011;640;48.310;11.728;2022-09-12T13:08:00;2.30;;;2.08;;
1294;SDS011;640;48.310;11.728;2022-09-12T13:10:30;2.25;;;2.00;;
1294;SDS011;640;48.310;11.728;2022-09-12T13:12:59;2.80;;;2.33;;
1294;SDS011;640;48.310;11.728;2022-09-12T13:18:23;2.95;;;2.10;;
1294;SDS011;640;48.310;11.728;2022-09-12T13:20:56;2.90;;;2.30;;
1294;SDS011;640;48.310;11.728;2022-09-12T13:23:30;2.60;;;2.28;;
1294;SDS011;640;48.310;11.728;2022-09-12T13:26:00;4.55;;;2.65;;
1294;SDS011;640;48.310;11.728;2022-09-12T13:28:29;3.85;;;2.22;;
1294;SDS011;640;48.310;11.728;2022-09-12T13:30:58;3.45;;;2.30;;
1294;SDS011;640;48.310;11.728;2022-09-12T13:33:30;3.05;;;2.10;;
1294;SDS011;640;48.310;11.728;2022-09-12T13:36:12;2.92;;;2.40;;
1294;SDS011;640;48.310;11.728;2022-09-12T13:42:03;5.50;;;2.10;;
1294;SDS011;640;48.310;11.728;2022-09-12T13:44:44;2.50;;;2.22;;
1294;SDS011;640;48.310;11.728;2022-09-12T13:47:15;2.50;;;2.05;;
1294;SDS011;640;48.310;11.728;2022-09-12T13:49:52;2.30;;;2.10;;
1294;SDS011;640;48.310;11.728;2022-09-12T13:52:22;2.27;;;2.07;;
1294;SDS011;640;48.310;11.728;2022-09-12T13:54:55;3.17;;;2.40;;
1294;SDS011;640;48.310;11.728;2022-09-12T13:57:26;3.10;;;2.10;;
1294;SDS011;640;48.310;11.728;2022-09-12T13:59:57;1.92;;;1.80;;
1294;SDS011;640;48.310;11.728;2022-09-12T14:02:26;3.07;;;2.27;;
1294;SDS011;640;48.310;11.728;2022-09-12T14:04:57;3.08;;;2.58;;
1294;SDS011;640;48.310;11.728;2022-09-12T14:07:46;2.47;;;2.20;;
1294;SDS011;640;48.310;11.728;2022-09-12T14:10:22;2.45;;;2.20;;
1294;SDS011;640;48.310;11.728;2022-09-12T14:12:53;2.78;;;2.30;;
1294;SDS011;640;48.310;11.728;2022-09-12T14:15:24;3.22;;;2.28;;
1294;SDS011;640;48.310;11.728;2022-09-12T14:17:55;2.63;;;2.33;;
1294;SDS011;640;48.310;11.728;2022-09-12T14:20:27;3.22;;;2.60;;
1294;SDS011;640;48.310;11.728;2022-09-12T14:22:58;3.28;;;2.28;;
1294;SDS011;640;48.310;11.728;2022-09-12T14:25:31;2.70;;;2.17;;
1294;SDS011;640;48.310;11.728;2022-09-12T14:28:04;3.00;;;2.40;;
1294;SDS011;640;48.310;11.728;2022-09-12T14:30:33;2.63;;;2.03;;
1294;SDS011;640;48.310;11.728;2022-09-12T14:33:16;4.82;;;2.40;;
1294;SDS011;640;48.310;11.728;2022-09-12T14:35:46;3.67;;;2.40;;
1294;SDS011;640;48.310;11.728;2022-09-12T14:38:27;2.38;;;2.17;;
1294;SDS011;640;48.310;11.728;2022-09-12T14:41:00;2.20;;;2.00;;
1294;SDS011;640;48.310;11.728;2022-09-12T14:43:30;3.50;;;2.15;;
1294;SDS011;640;48.310;11.728;2022-09-12T14:46:00;2.83;;;2.10;;
1294;SDS011;640;48.310;11.728;2022-09-12T14:48:31;3.33;;;2.30;;
1294;SDS011;640;48.310;11.728;2022-09-12T14:51:02;2.67;;;2.15;;
1294;SDS011;640;48.310;11.728;2022-09-12T14:53:31;2.30;;;2.10;;
1294;SDS011;640;48.310;11.728;2022-09-12T14:56:08;2.75;;;1.98;;
1294;SDS011;640;48.310;11.728;2022-09-12T14:58:38;2.17;;;1.98;;
1294;SDS011;640;48.310;11.728;2022-09-12T15:01:20;3.60;;;2.20;;
1294;SDS011;640;48.310;11.728;2022-09-12T15:03:53;2.60;;;1.88;;
1294;SDS011;640;48.310;11.728;2022-09-12T15:06:25;3.35;;;1.80;;
1294;SDS011;640;48.310;11.728;2022-09-12T15:08:56;3.17;;;1.98;;
1294;SDS011;640;48.310;11.728;2022-09-12T15:11:26;2.10;;;1.90;;
1294;SDS011;640;48.310;11.728;2022-09-12T15:13:54;2.28;;;1.90;;
1294;SDS011;640;48.310;11.728;2022-09-12T15:16:23;3.65;;;1.90;;
1294;SDS011;640;48.310;11.728;2022-09-12T15:18:51;2.70;;;2.00;;
1294;SDS011;640;48.310;11.728;2022-09-12T15:21:20;3.58;;;2.00;;
1294;SDS011;640;48.310;11.728;2022-09-12T15:23:48;1.88;;;1.77;;
1294;SDS011;640;48.310;11.728;2022-09-12T15:26:18;2.65;;;2.15;;
1294;SDS011;640;48.310;11.728;2022-09-12T15:28:49;2.42;;;1.88;;
1294;SDS011;640;48.310;11.728;2022-09-12T15:31:20;2.65;;;2.45;;
1294;SDS011;640;48.310;11.728;2022-09-12T15:33:51;2.72;;;2.05;;
1294;SDS011;640;48.310;11.728;2022-09-12T15:36:20;2.20;;;2.00;;
1294;SDS011;640;48.310;11.728;2022-09-12T15:38:50;2.60;;;1.85;;
1294;SDS011;640;48.310;11.728;2022-09-12T15:41:19;2.17;;;1.98;;
1294;SDS011;640;48.310;11.728;2022-09-12T15:46:18;2.17;;;1.98;;
1294;SDS011;640;48.310;11.728;2022-09-12T15:48:47;1.85;;;1.70;;
1294;SDS011;640;48.310;11.728;2022-09-12T15:51:16;2.08;;;1.70;;
1294;SDS011;640;48.310;11.728;2022-09-12T15:56:15;4.70;;;1.88;;
1294;SDS011;640;48.310;11.728;2022-09-12T15:58:44;1.90;;;1.70;;
1294;SDS011;640;48.310;11.728;2022-09-12T16:01:26;1.83;;;1.70;;
1294;SDS011;640;48.310;11.728;2022-09-12T16:03:55;2.15;;;1.95;;
1294;SDS011;640;48.310;11.728;2022-09-12T16:06:24;3.50;;;2.08;;
1294;SDS011;640;48.310;11.728;2022-09-12T16:08:53;2.47;;;1.92;;
1294;SDS011;640;48.310;11.728;2022-09-12T16:11:22;2.15;;;1.70;;
1294;SDS011;640;48.310;11.728;2022-09-12T16:16:20;2.13;;;1.90;;
1294;SDS011;640;48.310;11.728;2022-09-12T16:18:50;2.13;;;1.85;;
1294;SDS011;640;48.310;11.728;2022-09-12T16:21:19;4.28;;;1.90;;
1294;SDS011;640;48.310;11.728;2022-09-12T16:23:47;4.07;;;2.10;;
1294;SDS011;640;48.310;11.728;2022-09-12T16:26:16;2.97;;;2.10;;
1294;SDS011;640;48.310;11.728;2022-09-12T16:28:44;3.10;;;2.30;;
1294;SDS011;640;48.310;11.728;2022-09-12T16:31:13;2.63;;;2.03;;
1294;SDS011;640;48.310;11.728;2022-09-12T16:33:41;2.25;;;2.00;;
1294;SDS011;640;48.310;11.728;2022-09-12T16:36:12;2.10;;;1.90;;